createdAt,value
2022-10-02T00:00:00.000Z,10.0
2022-10-02T00:02:00.000Z,10.0
2022-10-02T00:04:00.000Z,10.0
2022-10-02T00:06:00.000Z,10.0
2022-10-02T00:08:00.000Z,10.2
2022-10-02T00:10:00.000Z,10.0
2022-10-02T00:12:00.000Z,10.0
2022-10-02T00:14:00.000Z,9.9
2022-10-02T00:16:00.000Z,9.8
2022-10-02T00:18:00.000Z,9.7
2022-10-02T00:20:00.000Z,9.6
2022-10-02T00:22:00.000Z,9.6
2022-10-02T00:24:00.000Z,9.5
2022-10-02T00:26:00.000Z,9.4
2022-10-02T00:28:00.000Z,9.4
2022-10-02T00:30:00.000Z,9.4
2022-10-02T00:32:00.000Z,9.3
2022-10-02T00:34:00.000Z,9.3
2022-10-02T00:36:00.000Z,9.3
2022-10-02T00:38:00.000Z,9.2
2022-10-02T00:40:00.000Z,9.2
2022-10-02T00:42:00.000Z,9.2
2022-10-02T00:44:00.000Z,9.2
2022-10-02T00:46:00.000Z,9.2
2022-10-02T00:48:00.000Z,9.2
2022-10-02T00:50:00.000Z,9.2
2022-10-02T00:52:00.000Z,9.0
2022-10-02T00:54:00.000Z,9.0
2022-10-02T00:56:00.000Z,9.0
2022-10-02T00:58:00.000Z,9.0
2022-10-02T01:00:00.000Z,9.2
2022-10-02T01:02:00.000Z,9.2
2022-10-02T01:04:00.000Z,9.2
2022-10-02T01:06:00.000Z,9.2
2022-10-02T01:08:00.000Z,9.2
2022-10-02T01:10:00.000Z,9.2
2022-10-02T01:12:00.000Z,9.2
2022-10-02T01:14:00.000Z,9.0
2022-10-02T01:16:00.000Z,9.0
2022-10-02T01:18:00.000Z,9.0
2022-10-02T01:20:00.000Z,9.0
2022-10-02T01:22:00.000Z,9.0
2022-10-02T01:24:00.000Z,9.0
2022-10-02T01:26:00.000Z,9.0
2022-10-02T01:28:00.000Z,9.0
2022-10-02T01:30:00.000Z,9.0
2022-10-02T01:32:00.000Z,8.9
2022-10-02T01:34:00.000Z,8.9
2022-10-02T01:36:00.000Z,8.8
2022-10-02T01:38:00.000Z,8.8
2022-10-02T01:40:00.000Z,8.8
2022-10-02T01:42:00.000Z,8.8
2022-10-02T01:44:00.000Z,8.9
2022-10-02T01:46:00.000Z,9.0
2022-10-02T01:48:00.000Z,8.9
2022-10-02T01:50:00.000Z,8.9
2022-10-02T01:52:00.000Z,8.9
2022-10-02T01:54:00.000Z,8.9
2022-10-02T01:56:00.000Z,8.9
2022-10-02T01:58:00.000Z,8.9
2022-10-02T02:00:00.000Z,8.9
2022-10-02T02:02:00.000Z,9.0
2022-10-02T02:04:00.000Z,9.0
2022-10-02T02:06:00.000Z,9.0
2022-10-02T02:08:00.000Z,9.2
2022-10-02T02:10:00.000Z,9.2
2022-10-02T02:12:00.000Z,9.2
2022-10-02T02:14:00.000Z,9.2
2022-10-02T02:16:00.000Z,9.2
2022-10-02T02:18:00.000Z,9.2
2022-10-02T02:20:00.000Z,9.2
2022-10-02T02:22:00.000Z,9.2
2022-10-02T02:24:00.000Z,9.0
2022-10-02T02:26:00.000Z,9.0
2022-10-02T02:28:00.000Z,9.0
2022-10-02T02:30:00.000Z,9.0
2022-10-02T02:32:00.000Z,9.2
2022-10-02T02:34:00.000Z,9.2
2022-10-02T02:36:00.000Z,9.2
2022-10-02T02:38:00.000Z,9.2
2022-10-02T02:40:00.000Z,9.2
2022-10-02T02:42:00.000Z,9.2
2022-10-02T02:44:00.000Z,9.2
2022-10-02T02:46:00.000Z,9.2
2022-10-02T02:48:00.000Z,9.3
2022-10-02T02:50:00.000Z,9.3
2022-10-02T02:52:00.000Z,9.4
2022-10-02T02:54:00.000Z,9.4
2022-10-02T02:56:00.000Z,9.4
2022-10-02T02:58:00.000Z,9.4
2022-10-02T03:00:00.000Z,9.4
2022-10-02T03:02:00.000Z,9.4
2022-10-02T03:04:00.000Z,9.4
2022-10-02T03:06:00.000Z,9.5
2022-10-02T03:08:00.000Z,9.5
2022-10-02T03:10:00.000Z,9.3
2022-10-02T03:12:00.000Z,9.3
2022-10-02T03:14:00.000Z,9.3
2022-10-02T03:16:00.000Z,9.4
2022-10-02T03:18:00.000Z,9.4
2022-10-02T03:20:00.000Z,9.4
2022-10-02T03:22:00.000Z,9.4
2022-10-02T03:24:00.000Z,9.4
2022-10-02T03:26:00.000Z,9.4
2022-10-02T03:28:00.000Z,9.4
2022-10-02T03:30:00.000Z,9.4
2022-10-02T03:32:00.000Z,9.5
2022-10-02T03:34:00.000Z,9.5
2022-10-02T03:36:00.000Z,9.4
2022-10-02T03:38:00.000Z,9.4
2022-10-02T03:40:00.000Z,9.7
2022-10-02T03:42:00.000Z,9.5
2022-10-02T03:44:00.000Z,9.5
2022-10-02T03:46:00.000Z,9.4
2022-10-02T03:48:00.000Z,9.4
2022-10-02T03:50:00.000Z,9.4
2022-10-02T03:52:00.000Z,9.7
2022-10-02T03:54:00.000Z,9.5
2022-10-02T03:56:00.000Z,9.5
2022-10-02T03:58:00.000Z,9.4
2022-10-02T04:00:00.000Z,9.4
2022-10-02T04:02:00.000Z,9.4
2022-10-02T04:04:00.000Z,9.4
2022-10-02T04:06:00.000Z,9.4
2022-10-02T04:08:00.000Z,9.4
2022-10-02T04:10:00.000Z,9.4
2022-10-02T04:12:00.000Z,9.4
2022-10-02T04:14:00.000Z,9.5
2022-10-02T04:16:00.000Z,9.8
2022-10-02T04:18:00.000Z,9.5
2022-10-02T04:20:00.000Z,9.8
2022-10-02T04:22:00.000Z,9.8
2022-10-02T04:24:00.000Z,9.9
2022-10-02T04:26:00.000Z,9.9
2022-10-02T04:28:00.000Z,9.6
2022-10-02T04:30:00.000Z,9.9
2022-10-02T04:32:00.000Z,9.6
2022-10-02T04:34:00.000Z,9.9
2022-10-02T04:36:00.000Z,9.9
2022-10-02T04:38:00.000Z,10.0
2022-10-02T04:40:00.000Z,9.7
2022-10-02T04:42:00.000Z,10.0
2022-10-02T04:44:00.000Z,10.0
2022-10-02T04:46:00.000Z,10.0
2022-10-02T04:48:00.000Z,9.9
2022-10-02T04:50:00.000Z,9.6
2022-10-02T04:52:00.000Z,9.9
2022-10-02T04:54:00.000Z,9.9
2022-10-02T04:56:00.000Z,9.9
2022-10-02T04:58:00.000Z,9.9
2022-10-02T05:00:00.000Z,9.9
2022-10-02T05:02:00.000Z,9.9
2022-10-02T05:04:00.000Z,9.9
2022-10-02T05:06:00.000Z,9.8
2022-10-02T05:08:00.000Z,9.8
2022-10-02T05:10:00.000Z,9.8
2022-10-02T05:12:00.000Z,9.8
2022-10-02T05:14:00.000Z,9.8
2022-10-02T05:16:00.000Z,9.8
2022-10-02T05:18:00.000Z,9.7
2022-10-02T05:20:00.000Z,9.7
2022-10-02T05:22:00.000Z,9.3
2022-10-02T05:24:00.000Z,9.6
2022-10-02T05:26:00.000Z,9.6
2022-10-02T05:28:00.000Z,9.3
2022-10-02T05:30:00.000Z,9.3
2022-10-02T05:32:00.000Z,9.5
2022-10-02T05:34:00.000Z,9.2
2022-10-02T05:36:00.000Z,9.5
2022-10-02T05:38:00.000Z,9.5
2022-10-02T05:40:00.000Z,9.5
2022-10-02T05:42:00.000Z,9.5
2022-10-02T05:44:00.000Z,9.5
2022-10-02T05:46:00.000Z,9.5
2022-10-02T05:48:00.000Z,9.5
2022-10-02T05:50:00.000Z,9.6
2022-10-02T05:52:00.000Z,9.6
2022-10-02T05:54:00.000Z,9.6
2022-10-02T05:56:00.000Z,9.7
2022-10-02T05:58:00.000Z,9.7
2022-10-02T06:00:00.000Z,9.7
2022-10-02T06:02:00.000Z,9.7
2022-10-02T06:04:00.000Z,9.8
2022-10-02T06:06:00.000Z,9.8
2022-10-02T06:08:00.000Z,9.8
2022-10-02T06:10:00.000Z,9.9
2022-10-02T06:12:00.000Z,9.9
2022-10-02T06:14:00.000Z,9.9
2022-10-02T06:16:00.000Z,10.0
2022-10-02T06:18:00.000Z,9.9
2022-10-02T06:20:00.000Z,9.9
2022-10-02T06:22:00.000Z,9.9
2022-10-02T06:24:00.000Z,9.9
2022-10-02T06:26:00.000Z,9.9
2022-10-02T06:28:00.000Z,10.0
2022-10-02T06:30:00.000Z,10.0
2022-10-02T06:32:00.000Z,10.0
2022-10-02T06:34:00.000Z,10.0
2022-10-02T06:36:00.000Z,10.0
2022-10-02T06:38:00.000Z,10.1
2022-10-02T06:40:00.000Z,10.1
2022-10-02T06:42:00.000Z,10.1
2022-10-02T06:44:00.000Z,10.2
2022-10-02T06:46:00.000Z,9.9
2022-10-02T06:48:00.000Z,10.2
2022-10-02T06:50:00.000Z,10.3
2022-10-02T06:52:00.000Z,10.5
2022-10-02T06:54:00.000Z,10.5
2022-10-02T06:56:00.000Z,10.2
2022-10-02T06:58:00.000Z,10.2
2022-10-02T07:00:00.000Z,10.2
2022-10-02T07:02:00.000Z,10.2
2022-10-02T07:04:00.000Z,10.2
2022-10-02T07:06:00.000Z,10.2
2022-10-02T07:08:00.000Z,10.2
2022-10-02T07:10:00.000Z,10.2
2022-10-02T07:12:00.000Z,10.3
2022-10-02T07:14:00.000Z,10.3
2022-10-02T07:16:00.000Z,10.3
2022-10-02T07:18:00.000Z,10.3
2022-10-02T07:20:00.000Z,10.4
2022-10-02T07:22:00.000Z,10.5
2022-10-02T07:24:00.000Z,10.5
2022-10-02T07:26:00.000Z,10.6
2022-10-02T07:28:00.000Z,10.7
2022-10-02T07:30:00.000Z,10.8
2022-10-02T07:32:00.000Z,10.9
2022-10-02T07:34:00.000Z,11.0
2022-10-02T07:36:00.000Z,11.0
2022-10-02T07:38:00.000Z,11.2
2022-10-02T07:40:00.000Z,11.2
2022-10-02T07:42:00.000Z,11.2
2022-10-02T07:44:00.000Z,11.2
2022-10-02T07:46:00.000Z,11.2
2022-10-02T07:48:00.000Z,11.3
2022-10-02T07:50:00.000Z,11.4
2022-10-02T07:52:00.000Z,11.4
2022-10-02T07:54:00.000Z,11.4
2022-10-02T07:56:00.000Z,11.4
2022-10-02T07:58:00.000Z,11.4
2022-10-02T08:00:00.000Z,11.4
2022-10-02T08:02:00.000Z,11.4
2022-10-02T08:04:00.000Z,11.4
2022-10-02T08:06:00.000Z,11.4
2022-10-02T08:08:00.000Z,11.5
2022-10-02T08:10:00.000Z,11.5
2022-10-02T08:12:00.000Z,11.6
2022-10-02T08:14:00.000Z,11.7
2022-10-02T08:16:00.000Z,11.7
2022-10-02T08:18:00.000Z,11.8
2022-10-02T08:20:00.000Z,11.7
2022-10-02T08:22:00.000Z,11.8
2022-10-02T08:42:00.000Z,12.1
2022-10-02T08:44:00.000Z,12.1
2022-10-02T08:46:00.000Z,12.1
2022-10-02T08:48:00.000Z,12.2
2022-10-02T08:50:00.000Z,12.3
2022-10-02T08:52:00.000Z,12.3
2022-10-02T08:54:00.000Z,12.3
2022-10-02T08:56:00.000Z,12.3
2022-10-02T08:58:00.000Z,12.4
2022-10-02T09:00:00.000Z,12.4
2022-10-02T09:02:00.000Z,12.4
2022-10-02T09:04:00.000Z,12.4
2022-10-02T09:06:00.000Z,12.5
2022-10-02T09:08:00.000Z,12.6
2022-10-02T09:10:00.000Z,12.4
2022-10-02T09:12:00.000Z,12.6
2022-10-02T09:14:00.000Z,12.6
2022-10-02T09:16:00.000Z,12.7
2022-10-02T09:18:00.000Z,12.6
2022-10-02T09:20:00.000Z,12.7
2022-10-02T09:22:00.000Z,12.6
2022-10-02T09:24:00.000Z,12.6
2022-10-02T09:26:00.000Z,12.5
2022-10-02T09:28:00.000Z,12.5
2022-10-02T09:30:00.000Z,12.6
2022-10-02T09:32:00.000Z,12.4
2022-10-02T09:34:00.000Z,12.8
2022-10-02T09:36:00.000Z,13.0
2022-10-02T09:38:00.000Z,12.8
2022-10-02T09:40:00.000Z,12.8
2022-10-02T09:42:00.000Z,12.8
2022-10-02T09:44:00.000Z,12.8
2022-10-02T09:46:00.000Z,12.8
2022-10-02T09:48:00.000Z,12.8
2022-10-02T09:50:00.000Z,12.7
2022-10-02T09:52:00.000Z,13.1
2022-10-02T09:54:00.000Z,13.2
2022-10-02T09:56:00.000Z,13.1
2022-10-02T09:58:00.000Z,12.8
2022-10-02T10:00:00.000Z,12.7
2022-10-02T10:02:00.000Z,12.7
2022-10-02T10:04:00.000Z,12.4
2022-10-02T10:06:00.000Z,13.0
2022-10-02T10:08:00.000Z,12.7
2022-10-02T10:10:00.000Z,12.8
2022-10-02T10:12:00.000Z,13.2
2022-10-02T10:14:00.000Z,13.5
2022-10-02T10:16:00.000Z,13.2
2022-10-02T10:18:00.000Z,12.9
2022-10-02T10:20:00.000Z,13.0
2022-10-02T10:22:00.000Z,12.9
2022-10-02T10:24:00.000Z,12.9
2022-10-02T10:26:00.000Z,12.9
2022-10-02T10:28:00.000Z,12.5
2022-10-02T10:30:00.000Z,12.5
2022-10-02T10:32:00.000Z,12.2
2022-10-02T10:34:00.000Z,12.1
2022-10-02T10:36:00.000Z,12.3
2022-10-02T10:38:00.000Z,12.4
2022-10-02T10:40:00.000Z,12.5
2022-10-02T10:42:00.000Z,13.1
2022-10-02T10:44:00.000Z,12.3
2022-10-02T10:46:00.000Z,12.3
2022-10-02T10:48:00.000Z,12.5
2022-10-02T10:50:00.000Z,12.7
2022-10-02T10:52:00.000Z,12.2
2022-10-02T10:54:00.000Z,12.2
2022-10-02T10:56:00.000Z,12.1
2022-10-02T10:58:00.000Z,12.3
2022-10-02T11:00:00.000Z,12.1
2022-10-02T11:02:00.000Z,11.9
2022-10-02T11:04:00.000Z,11.9
2022-10-02T11:06:00.000Z,12.1
2022-10-02T11:08:00.000Z,12.1
2022-10-02T11:10:00.000Z,12.2
2022-10-02T11:12:00.000Z,12.5
2022-10-02T11:14:00.000Z,12.6
2022-10-02T11:16:00.000Z,12.5
2022-10-02T11:18:00.000Z,12.1
2022-10-02T11:20:00.000Z,12.6
2022-10-02T11:22:00.000Z,12.3
2022-10-02T11:24:00.000Z,12.2
2022-10-02T11:26:00.000Z,12.1
2022-10-02T11:28:00.000Z,12.0
2022-10-02T11:30:00.000Z,11.7
2022-10-02T11:32:00.000Z,11.8
2022-10-02T11:34:00.000Z,11.8
2022-10-02T11:36:00.000Z,11.4
2022-10-02T11:38:00.000Z,11.7
2022-10-02T11:40:00.000Z,11.9
2022-10-02T11:42:00.000Z,12.2
2022-10-02T11:44:00.000Z,11.0
2022-10-02T11:46:00.000Z,11.3
2022-10-02T11:48:00.000Z,11.5
2022-10-02T11:50:00.000Z,11.7
2022-10-02T11:52:00.000Z,11.5
2022-10-02T11:54:00.000Z,11.8
2022-10-02T11:56:00.000Z,11.4
2022-10-02T11:58:00.000Z,10.8
2022-10-02T12:00:00.000Z,11.1
2022-10-02T12:02:00.000Z,10.4
2022-10-02T12:04:00.000Z,10.6
2022-10-02T12:06:00.000Z,10.6
2022-10-02T12:08:00.000Z,11.0
2022-10-02T12:10:00.000Z,10.4
2022-10-02T12:12:00.000Z,10.2
2022-10-02T12:14:00.000Z,10.4
2022-10-02T12:16:00.000Z,10.1
2022-10-02T12:18:00.000Z,10.9
2022-10-02T12:20:00.000Z,10.3
2022-10-02T12:22:00.000Z,9.5
2022-10-02T12:24:00.000Z,10.0
2022-10-02T12:26:00.000Z,9.5
2022-10-02T12:28:00.000Z,10.0
2022-10-02T12:30:00.000Z,9.9
2022-10-02T12:32:00.000Z,10.1
2022-10-02T12:34:00.000Z,9.5
2022-10-02T12:36:00.000Z,9.9
2022-10-02T12:38:00.000Z,9.9
2022-10-02T12:40:00.000Z,9.7
2022-10-02T12:42:00.000Z,9.4
2022-10-02T12:44:00.000Z,9.7
2022-10-02T12:46:00.000Z,9.7
2022-10-02T12:48:00.000Z,9.9
2022-10-02T12:50:00.000Z,10.1
2022-10-02T12:52:00.000Z,10.2
2022-10-02T12:54:00.000Z,10.1
2022-10-02T12:56:00.000Z,10.2
2022-10-02T12:58:00.000Z,10.7
2022-10-02T13:00:00.000Z,10.5
2022-10-02T13:02:00.000Z,10.2
2022-10-02T13:04:00.000Z,10.5
2022-10-02T13:06:00.000Z,10.3
2022-10-02T13:08:00.000Z,11.3
2022-10-02T13:10:00.000Z,11.0
2022-10-02T13:12:00.000Z,11.1
2022-10-02T13:14:00.000Z,11.2
2022-10-02T13:16:00.000Z,10.9
2022-10-02T13:18:00.000Z,10.9
2022-10-02T13:20:00.000Z,10.9
2022-10-02T13:22:00.000Z,11.1
2022-10-02T13:24:00.000Z,10.8
2022-10-02T13:26:00.000Z,10.8
2022-10-02T13:28:00.000Z,11.0
2022-10-02T13:30:00.000Z,10.9
2022-10-02T13:32:00.000Z,11.2
2022-10-02T13:34:00.000Z,11.3
2022-10-02T13:36:00.000Z,11.2
2022-10-02T13:38:00.000Z,11.6
2022-10-02T13:40:00.000Z,11.5
2022-10-02T13:42:00.000Z,11.5
2022-10-02T13:44:00.000Z,11.8
2022-10-02T13:46:00.000Z,11.8
2022-10-02T13:48:00.000Z,11.6
2022-10-02T13:50:00.000Z,11.9
2022-10-02T13:52:00.000Z,11.6
2022-10-02T13:54:00.000Z,11.4
2022-10-02T13:56:00.000Z,11.4
2022-10-02T13:58:00.000Z,11.3
2022-10-02T14:00:00.000Z,11.3
2022-10-02T14:02:00.000Z,11.3
2022-10-02T14:04:00.000Z,11.3
2022-10-02T14:06:00.000Z,11.2
2022-10-02T14:08:00.000Z,11.1
2022-10-02T14:10:00.000Z,11.1
2022-10-02T14:12:00.000Z,11.0
2022-10-02T14:14:00.000Z,10.8
2022-10-02T14:16:00.000Z,11.0
2022-10-02T14:18:00.000Z,11.5
2022-10-02T14:20:00.000Z,11.3
2022-10-02T14:22:00.000Z,11.3
2022-10-02T14:24:00.000Z,11.2
2022-10-02T14:26:00.000Z,11.5
2022-10-02T14:28:00.000Z,11.2
2022-10-02T14:30:00.000Z,11.2
2022-10-02T14:32:00.000Z,11.4
2022-10-02T14:34:00.000Z,11.3
2022-10-02T14:36:00.000Z,11.3
2022-10-02T14:38:00.000Z,11.6
2022-10-02T14:40:00.000Z,11.3
2022-10-02T14:42:00.000Z,11.4
2022-10-02T14:44:00.000Z,11.3
2022-10-02T14:46:00.000Z,11.4
2022-10-02T14:48:00.000Z,11.5
2022-10-02T14:50:00.000Z,11.5
2022-10-02T14:52:00.000Z,11.5
2022-10-02T14:54:00.000Z,11.5
2022-10-02T14:56:00.000Z,11.5
2022-10-02T14:58:00.000Z,11.6
2022-10-02T15:00:00.000Z,11.5
2022-10-02T15:02:00.000Z,11.5
2022-10-02T15:04:00.000Z,11.3
2022-10-02T15:06:00.000Z,11.4
2022-10-02T15:08:00.000Z,11.9
2022-10-02T15:10:00.000Z,11.9
2022-10-02T15:12:00.000Z,11.7
2022-10-02T15:14:00.000Z,11.6
2022-10-02T15:16:00.000Z,11.8
2022-10-02T15:18:00.000Z,12.2
2022-10-02T15:20:00.000Z,11.9
2022-10-02T15:22:00.000Z,11.9
2022-10-02T15:24:00.000Z,11.9
2022-10-02T15:26:00.000Z,12.1
2022-10-02T15:28:00.000Z,11.8
2022-10-02T15:30:00.000Z,11.8
2022-10-02T15:32:00.000Z,12.0
2022-10-02T15:34:00.000Z,12.1
2022-10-02T15:36:00.000Z,12.5
2022-10-02T15:38:00.000Z,12.1
2022-10-02T15:40:00.000Z,12.1
2022-10-02T15:42:00.000Z,12.2
2022-10-02T15:44:00.000Z,12.5
2022-10-02T15:46:00.000Z,12.2
2022-10-02T15:48:00.000Z,12.1
2022-10-02T15:50:00.000Z,12.2
2022-10-02T15:52:00.000Z,12.4
2022-10-02T15:54:00.000Z,12.3
2022-10-02T15:56:00.000Z,12.7
2022-10-02T15:58:00.000Z,12.2
2022-10-02T16:00:00.000Z,12.3
2022-10-02T16:02:00.000Z,11.9
2022-10-02T16:04:00.000Z,11.8
2022-10-02T16:06:00.000Z,11.9
2022-10-02T16:08:00.000Z,12.0
2022-10-02T16:10:00.000Z,12.0
2022-10-02T16:12:00.000Z,11.9
2022-10-02T16:14:00.000Z,11.9
2022-10-02T16:16:00.000Z,11.8
2022-10-02T16:18:00.000Z,11.8
2022-10-02T16:20:00.000Z,11.7
2022-10-02T16:22:00.000Z,11.5
2022-10-02T16:24:00.000Z,11.5
2022-10-02T16:26:00.000Z,11.5
2022-10-02T16:28:00.000Z,11.7
2022-10-02T16:30:00.000Z,11.4
2022-10-02T16:32:00.000Z,11.4
2022-10-02T16:34:00.000Z,11.4
2022-10-02T16:36:00.000Z,11.6
2022-10-02T16:38:00.000Z,11.6
2022-10-02T16:40:00.000Z,11.5
2022-10-02T16:42:00.000Z,11.6
2022-10-02T16:44:00.000Z,11.1
2022-10-02T16:46:00.000Z,11.2
2022-10-02T16:48:00.000Z,11.3
2022-10-02T16:50:00.000Z,11.0
2022-10-02T16:52:00.000Z,11.3
2022-10-02T16:54:00.000Z,11.2
2022-10-02T16:56:00.000Z,11.2
2022-10-02T16:58:00.000Z,11.1
2022-10-02T17:00:00.000Z,11.1
2022-10-02T17:02:00.000Z,11.1
2022-10-02T17:04:00.000Z,10.9
2022-10-02T17:06:00.000Z,10.6
2022-10-02T17:08:00.000Z,10.5
2022-10-02T17:10:00.000Z,10.6
2022-10-02T17:12:00.000Z,10.7
2022-10-02T17:14:00.000Z,10.8
2022-10-02T17:16:00.000Z,10.5
2022-10-02T17:18:00.000Z,10.5
2022-10-02T17:20:00.000Z,10.4
2022-10-02T17:22:00.000Z,10.5
2022-10-02T17:24:00.000Z,10.4
2022-10-02T17:26:00.000Z,10.1
2022-10-02T17:28:00.000Z,10.3
2022-10-02T17:30:00.000Z,10.3
2022-10-02T17:32:00.000Z,10.3
2022-10-02T17:34:00.000Z,10.1
2022-10-02T17:36:00.000Z,10.1
2022-10-02T17:38:00.000Z,10.2
2022-10-02T17:40:00.000Z,10.2
2022-10-02T17:42:00.000Z,10.1
2022-10-02T17:44:00.000Z,10.1
2022-10-02T17:46:00.000Z,10.1
2022-10-02T17:48:00.000Z,10.1
2022-10-02T17:50:00.000Z,10.1
2022-10-02T17:52:00.000Z,10.1
2022-10-02T17:54:00.000Z,10.1
2022-10-02T17:56:00.000Z,10.0
2022-10-02T17:58:00.000Z,10.3
2022-10-02T18:00:00.000Z,10.3
2022-10-02T18:02:00.000Z,10.2
2022-10-02T18:04:00.000Z,10.2
2022-10-02T18:06:00.000Z,10.2
2022-10-02T18:08:00.000Z,9.9
2022-10-02T18:10:00.000Z,10.2
2022-10-02T18:12:00.000Z,10.0
2022-10-02T18:14:00.000Z,10.0
2022-10-02T18:16:00.000Z,10.3
2022-10-02T18:18:00.000Z,10.0
2022-10-02T18:20:00.000Z,10.1
2022-10-02T18:22:00.000Z,10.1
2022-10-02T18:24:00.000Z,10.1
2022-10-02T18:26:00.000Z,10.4
2022-10-02T18:28:00.000Z,10.4
2022-10-02T18:30:00.000Z,10.3
2022-10-02T18:32:00.000Z,10.2
2022-10-02T18:34:00.000Z,10.2
2022-10-02T18:36:00.000Z,10.1
2022-10-02T18:38:00.000Z,10.1
2022-10-02T18:40:00.000Z,10.1
2022-10-02T18:42:00.000Z,10.2
2022-10-02T18:44:00.000Z,10.2
2022-10-02T18:46:00.000Z,10.3
2022-10-02T18:48:00.000Z,10.3
2022-10-02T18:50:00.000Z,10.3
2022-10-02T18:52:00.000Z,10.3
2022-10-02T18:54:00.000Z,10.3
2022-10-02T18:56:00.000Z,10.2
2022-10-02T18:58:00.000Z,10.1
2022-10-02T19:00:00.000Z,10.0
2022-10-02T19:02:00.000Z,10.1
2022-10-02T19:04:00.000Z,10.1
2022-10-02T19:06:00.000Z,9.9
2022-10-02T19:08:00.000Z,9.9
2022-10-02T19:10:00.000Z,9.9
2022-10-02T19:12:00.000Z,9.9
2022-10-02T19:14:00.000Z,10.2
2022-10-02T19:16:00.000Z,10.2
2022-10-02T19:18:00.000Z,10.1
2022-10-02T19:20:00.000Z,10.1
2022-10-02T19:22:00.000Z,9.9
2022-10-02T19:24:00.000Z,10.1
2022-10-02T19:26:00.000Z,10.1
2022-10-02T19:28:00.000Z,10.1
2022-10-02T19:30:00.000Z,10.1
2022-10-02T19:32:00.000Z,10.1
2022-10-02T19:34:00.000Z,10.1
2022-10-02T19:36:00.000Z,10.1
2022-10-02T19:38:00.000Z,10.1
2022-10-02T19:40:00.000Z,10.1
2022-10-02T19:42:00.000Z,10.2
2022-10-02T19:44:00.000Z,10.1
2022-10-02T19:46:00.000Z,10.1
2022-10-02T19:48:00.000Z,10.1
2022-10-02T19:50:00.000Z,10.0
2022-10-02T19:52:00.000Z,10.0
2022-10-02T19:54:00.000Z,10.0
2022-10-02T19:56:00.000Z,10.0
2022-10-02T19:58:00.000Z,10.0
2022-10-02T20:00:00.000Z,10.0
2022-10-02T20:02:00.000Z,10.0
2022-10-02T20:04:00.000Z,10.0
2022-10-02T20:06:00.000Z,10.0
2022-10-02T20:08:00.000Z,9.9
2022-10-02T20:10:00.000Z,10.0
2022-10-02T20:12:00.000Z,10.0
2022-10-02T20:14:00.000Z,10.0
2022-10-02T20:16:00.000Z,10.0
2022-10-02T20:18:00.000Z,10.0
2022-10-02T20:20:00.000Z,10.0
2022-10-02T20:22:00.000Z,9.9
2022-10-02T20:24:00.000Z,9.9
2022-10-02T20:26:00.000Z,10.0
2022-10-02T20:28:00.000Z,9.9
2022-10-02T20:30:00.000Z,9.9
2022-10-02T20:32:00.000Z,9.8
2022-10-02T20:34:00.000Z,9.8
2022-10-02T20:36:00.000Z,9.7
2022-10-02T20:38:00.000Z,9.7
2022-10-02T20:40:00.000Z,9.7
2022-10-02T20:42:00.000Z,9.7
2022-10-02T20:44:00.000Z,9.8
2022-10-02T20:46:00.000Z,9.8
2022-10-02T20:48:00.000Z,9.8
2022-10-02T20:50:00.000Z,9.8
2022-10-02T20:52:00.000Z,9.8
2022-10-02T20:54:00.000Z,9.6
2022-10-02T20:56:00.000Z,9.9
2022-10-02T20:58:00.000Z,9.9
2022-10-02T21:00:00.000Z,9.9
2022-10-02T21:02:00.000Z,9.9
2022-10-02T21:04:00.000Z,9.9
2022-10-02T21:06:00.000Z,9.9
2022-10-02T21:08:00.000Z,9.9
2022-10-02T21:10:00.000Z,9.9
2022-10-02T21:12:00.000Z,9.9
2022-10-02T21:14:00.000Z,9.9
2022-10-02T21:16:00.000Z,9.9
2022-10-02T21:18:00.000Z,9.9
2022-10-02T21:20:00.000Z,9.6
2022-10-02T21:22:00.000Z,9.9
2022-10-02T21:24:00.000Z,9.9
2022-10-02T21:26:00.000Z,9.9
2022-10-02T21:28:00.000Z,9.9
2022-10-02T21:30:00.000Z,9.9
2022-10-02T21:32:00.000Z,9.9
2022-10-02T21:34:00.000Z,9.9
2022-10-02T21:36:00.000Z,9.9
2022-10-02T21:38:00.000Z,9.9
2022-10-02T21:40:00.000Z,9.7
2022-10-02T21:42:00.000Z,9.7
2022-10-02T21:44:00.000Z,9.7
2022-10-02T21:46:00.000Z,9.6
2022-10-02T21:48:00.000Z,9.6
2022-10-02T21:50:00.000Z,9.6
2022-10-02T21:52:00.000Z,9.6
2022-10-02T21:54:00.000Z,9.6
2022-10-02T21:56:00.000Z,9.7
2022-10-02T21:58:00.000Z,9.7
2022-10-02T22:00:00.000Z,9.7
2022-10-02T22:02:00.000Z,9.7
2022-10-02T22:04:00.000Z,9.7
2022-10-02T22:06:00.000Z,9.9
2022-10-02T22:08:00.000Z,9.9
2022-10-02T22:10:00.000Z,9.9
2022-10-02T22:12:00.000Z,9.6
2022-10-02T22:14:00.000Z,9.9
2022-10-02T22:16:00.000Z,9.9
2022-10-02T22:18:00.000Z,9.9
2022-10-02T22:20:00.000Z,9.9
2022-10-02T22:22:00.000Z,9.9
2022-10-02T22:24:00.000Z,9.9
2022-10-02T22:26:00.000Z,9.9
2022-10-02T22:28:00.000Z,9.7
2022-10-02T22:30:00.000Z,9.7
2022-10-02T22:32:00.000Z,9.7
2022-10-02T22:34:00.000Z,9.7
2022-10-02T22:36:00.000Z,9.9
2022-10-02T22:38:00.000Z,9.6
2022-10-02T22:40:00.000Z,9.6
2022-10-02T22:42:00.000Z,9.5
2022-10-02T22:44:00.000Z,9.6
2022-10-02T22:46:00.000Z,9.6
2022-10-02T22:48:00.000Z,9.6
2022-10-02T22:50:00.000Z,9.7
2022-10-02T22:52:00.000Z,9.7
2022-10-02T22:54:00.000Z,9.7
2022-10-02T22:56:00.000Z,9.7
2022-10-02T22:58:00.000Z,9.7
2022-10-02T23:00:00.000Z,9.7
2022-10-02T23:02:00.000Z,9.7
2022-10-02T23:04:00.000Z,9.7
2022-10-02T23:06:00.000Z,9.6
2022-10-02T23:08:00.000Z,9.6
2022-10-02T23:10:00.000Z,9.6
2022-10-02T23:12:00.000Z,9.6
2022-10-02T23:14:00.000Z,9.6
2022-10-02T23:16:00.000Z,9.7
2022-10-02T23:18:00.000Z,9.7
2022-10-02T23:20:00.000Z,9.6
2022-10-02T23:22:00.000Z,9.5
2022-10-02T23:24:00.000Z,9.5
2022-10-02T23:26:00.000Z,9.5
2022-10-02T23:28:00.000Z,9.5
2022-10-02T23:30:00.000Z,9.6
2022-10-02T23:32:00.000Z,9.7
2022-10-02T23:34:00.000Z,9.7
2022-10-02T23:36:00.000Z,9.8
2022-10-02T23:38:00.000Z,10.0
2022-10-02T23:40:00.000Z,10.0
2022-10-02T23:42:00.000Z,10.0
2022-10-02T23:44:00.000Z,10.0
2022-10-02T23:46:00.000Z,10.1
2022-10-02T23:48:00.000Z,10.1
2022-10-02T23:50:00.000Z,10.1
2022-10-02T23:52:00.000Z,10.0
2022-10-02T23:54:00.000Z,10.0
2022-10-02T23:56:00.000Z,10.0
2022-10-02T23:58:00.000Z,10.0
